createdAt,value
2023-04-28T00:00:29.958Z,0
2023-04-28T00:01:00.647Z,0
2023-04-28T00:01:31.843Z,0
2023-04-28T00:02:02.710Z,0
2023-04-28T00:02:33.464Z,0
2023-04-28T00:03:04.577Z,0
2023-04-28T00:03:36.073Z,0
2023-04-28T00:04:06.640Z,0
2023-04-28T00:04:38.017Z,0
2023-04-28T00:05:10.029Z,0
2023-04-28T00:05:39.484Z,0
2023-04-28T00:06:12.126Z,0
2023-04-28T00:06:41.464Z,0
2023-04-28T00:07:12.670Z,0
2023-04-28T00:07:43.371Z,0
2023-04-28T00:08:14.512Z,0
2023-04-28T00:08:45.412Z,0
2023-04-28T00:09:16.629Z,0
2023-04-28T00:09:47.603Z,0
2023-04-28T00:10:19.197Z,0
2023-04-28T00:10:49.432Z,0
2023-04-28T00:11:20.442Z,0
2023-04-28T00:11:51.618Z,0
2023-04-28T00:12:22.516Z,0
2023-04-28T00:12:53.585Z,0
2023-04-28T00:13:24.633Z,0
2023-04-28T00:13:56.335Z,0
2023-04-28T00:14:26.567Z,0
2023-04-28T00:14:57.503Z,0
2023-04-28T00:15:28.997Z,0
2023-04-28T00:15:59.480Z,0
2023-04-28T00:16:31.339Z,0
2023-04-28T00:17:01.429Z,0
2023-04-28T00:17:32.708Z,0
2023-04-28T00:18:03.436Z,0
2023-04-28T00:18:34.463Z,0
2023-04-28T00:19:05.557Z,0
2023-04-28T00:19:36.453Z,0
2023-04-28T00:20:08.102Z,0
2023-04-28T00:20:38.640Z,0
2023-04-28T00:21:09.462Z,0
2023-04-28T00:21:40.453Z,0
2023-04-28T00:22:11.540Z,0
2023-04-28T00:22:42.543Z,0
2023-04-28T00:23:13.453Z,0
2023-04-28T00:23:44.603Z,0
2023-04-28T00:24:15.704Z,0
2023-04-28T00:24:46.471Z,0
2023-04-28T00:25:18.104Z,0
2023-04-28T00:25:48.513Z,0
2023-04-28T00:26:19.432Z,0
2023-04-28T00:26:50.461Z,0
2023-04-28T00:27:21.492Z,0
2023-04-28T00:27:52.535Z,0
2023-04-28T00:28:33.443Z,0
2023-04-28T00:28:54.417Z,0
2023-04-28T00:29:25.477Z,0
2023-04-28T00:29:56.463Z,0
2023-04-28T00:30:28.334Z,0
2023-04-28T00:30:58.436Z,0
2023-04-28T00:31:29.511Z,0
2023-04-28T00:32:00.546Z,0
2023-04-28T00:32:31.604Z,0
2023-04-28T00:33:02.758Z,0
2023-04-28T00:33:33.580Z,0
2023-04-28T00:34:04.459Z,0
2023-04-28T00:34:36.009Z,0
2023-04-28T00:35:06.973Z,0
2023-04-28T00:35:37.459Z,0
2023-04-28T00:36:08.499Z,0
2023-04-28T00:36:40.078Z,0
2023-04-28T00:37:10.426Z,0
2023-04-28T00:37:42.164Z,0
2023-04-28T00:38:12.666Z,0
2023-04-28T00:38:43.527Z,0
2023-04-28T00:39:14.484Z,0
2023-04-28T00:39:45.522Z,0
2023-04-28T00:40:17.034Z,0
2023-04-28T00:40:47.499Z,0
2023-04-28T00:41:18.489Z,0
2023-04-28T00:41:49.475Z,0
2023-04-28T00:42:20.529Z,0
2023-04-28T00:42:51.523Z,0
2023-04-28T00:43:22.678Z,0
2023-04-28T00:43:53.521Z,0
2023-04-28T00:44:24.556Z,0
2023-04-28T00:44:55.530Z,0
2023-04-28T00:45:27.134Z,0
2023-04-28T00:45:57.688Z,0
2023-04-28T00:46:28.552Z,0
2023-04-28T00:46:59.682Z,0
2023-04-28T00:47:30.825Z,0
2023-04-28T00:48:01.593Z,0
2023-04-28T00:48:32.884Z,0
2023-04-28T00:49:03.548Z,0
2023-04-28T00:49:34.581Z,0
2023-04-28T00:50:05.816Z,0
2023-04-28T00:50:36.559Z,0
2023-04-28T00:51:07.711Z,0
2023-04-28T00:51:38.551Z,0
2023-04-28T00:52:09.685Z,0
2023-04-28T00:52:40.533Z,0
2023-04-28T00:53:11.836Z,0
2023-04-28T00:53:42.579Z,0
2023-04-28T00:54:14.134Z,0
2023-04-28T00:54:44.556Z,0
2023-04-28T00:55:16.219Z,0
2023-04-28T00:55:46.591Z,0
2023-04-28T00:56:17.780Z,0
2023-04-28T00:56:48.728Z,0
2023-04-28T00:57:20.154Z,0
2023-04-28T00:57:50.986Z,0
2023-04-28T00:58:22.018Z,0
2023-04-28T00:58:53.009Z,0
2023-04-28T00:59:23.607Z,0
2023-04-28T00:59:54.660Z,0
2023-04-28T01:00:26.457Z,0
2023-04-28T01:00:56.938Z,0
2023-04-28T01:01:27.592Z,0
2023-04-28T01:01:58.713Z,0
2023-04-28T01:02:29.693Z,0
2023-04-28T01:03:01.032Z,0
2023-04-28T01:03:31.863Z,0
2023-04-28T01:04:03.258Z,0
2023-04-28T01:04:33.821Z,0
2023-04-28T01:05:05.062Z,0
2023-04-28T01:05:36.028Z,0
2023-04-28T01:06:06.899Z,0
2023-04-28T01:06:37.920Z,0
2023-04-28T01:07:08.710Z,0
2023-04-28T01:07:40.010Z,0
2023-04-28T01:08:11.654Z,0
2023-04-28T01:08:41.746Z,0
2023-04-28T01:09:14.328Z,0
2023-04-28T01:09:44.002Z,0
2023-04-28T01:10:15.082Z,0
2023-04-28T01:10:45.662Z,0
2023-04-28T01:11:16.973Z,0
2023-04-28T01:11:47.999Z,0
2023-04-28T01:12:18.723Z,0
2023-04-28T01:12:49.689Z,0
2023-04-28T01:13:20.668Z,0
2023-04-28T01:13:51.618Z,0
2023-04-28T01:14:23.134Z,0
2023-04-28T01:14:53.831Z,0
2023-04-28T01:15:25.601Z,0
2023-04-28T01:15:55.783Z,0
2023-04-28T01:16:26.693Z,0
2023-04-28T01:16:57.738Z,0
2023-04-28T01:17:28.679Z,0
2023-04-28T01:17:59.732Z,0
2023-04-28T01:18:30.926Z,0
2023-04-28T01:19:01.724Z,0
2023-04-28T01:19:32.691Z,0
2023-04-28T01:20:03.901Z,0
2023-04-28T01:20:34.891Z,0
2023-04-28T01:21:05.694Z,0
2023-04-28T01:21:36.793Z,0
2023-04-28T01:22:07.766Z,0
2023-04-28T01:22:38.749Z,0
2023-04-28T01:23:10.582Z,0
2023-04-28T01:23:40.954Z,0
2023-04-28T01:24:11.948Z,0
2023-04-28T01:24:43.091Z,0
2023-04-28T01:25:14.131Z,0
2023-04-28T01:25:44.959Z,0
2023-04-28T01:26:15.667Z,0
2023-04-28T01:26:47.043Z,0
2023-04-28T01:27:17.690Z,0
2023-04-28T01:27:48.833Z,0
2023-04-28T01:28:19.711Z,0
2023-04-28T01:28:50.734Z,0
2023-04-28T01:29:21.747Z,0
2023-04-28T01:29:52.677Z,0
2023-04-28T01:30:24.864Z,0
2023-04-28T01:30:54.784Z,0
2023-04-28T01:31:25.782Z,0
2023-04-28T01:31:56.730Z,0
2023-04-28T01:32:27.793Z,0
2023-04-28T01:32:58.779Z,0
2023-04-28T01:33:29.704Z,0
2023-04-28T01:34:00.845Z,0
2023-04-28T01:34:31.665Z,0
2023-04-28T01:35:03.028Z,0
2023-04-28T01:35:33.771Z,0
2023-04-28T01:36:04.664Z,0
2023-04-28T01:36:37.555Z,0
2023-04-28T01:37:07.082Z,0
2023-04-28T01:37:38.096Z,0
2023-04-28T01:38:08.708Z,0
2023-04-28T01:38:39.676Z,0
2023-04-28T01:39:10.762Z,0
2023-04-28T01:39:43.498Z,0
2023-04-28T01:40:13.551Z,0
2023-04-28T01:40:45.288Z,0
2023-04-28T01:41:15.002Z,0
2023-04-28T01:41:45.857Z,0
2023-04-28T01:42:16.754Z,0
2023-04-28T01:42:47.799Z,0
2023-04-28T01:43:18.770Z,0
2023-04-28T01:43:50.207Z,0
2023-04-28T01:44:20.742Z,0
2023-04-28T01:44:51.761Z,0
2023-04-28T01:45:23.496Z,0
2023-04-28T01:45:53.867Z,0
2023-04-28T01:46:24.813Z,0
2023-04-28T01:46:55.982Z,0
2023-04-28T01:47:26.802Z,0
2023-04-28T01:47:58.629Z,0
2023-04-28T01:48:28.987Z,0
2023-04-28T01:49:00.217Z,0
2023-04-28T01:49:30.842Z,0
2023-04-28T01:50:02.401Z,0
2023-04-28T01:50:33.235Z,0
2023-04-28T01:51:03.767Z,0
2023-04-28T01:51:35.023Z,0
2023-04-28T01:52:05.776Z,0
2023-04-28T01:52:37.294Z,0
2023-04-28T01:53:07.934Z,0
2023-04-28T01:53:38.768Z,0
2023-04-28T01:54:09.782Z,0
2023-04-28T01:54:40.821Z,0
2023-04-28T01:55:12.177Z,0
2023-04-28T01:55:43.000Z,0
2023-04-28T01:56:13.806Z,0
2023-04-28T01:56:44.751Z,0
2023-04-28T01:57:46.811Z,0
2023-04-28T01:58:17.829Z,0
2023-04-28T01:58:48.730Z,0
2023-04-28T01:59:20.094Z,0
2023-04-28T01:59:50.940Z,0
2023-04-28T02:00:22.902Z,0
2023-04-28T02:00:53.160Z,0
2023-04-28T02:01:23.927Z,0
2023-04-28T02:01:54.845Z,0
2023-04-28T02:02:26.278Z,0
2023-04-28T02:02:57.202Z,0
2023-04-28T02:03:28.066Z,0
2023-04-28T02:03:59.028Z,0
2023-04-28T02:04:29.802Z,0
2023-04-28T02:05:00.975Z,0
2023-04-28T02:05:32.272Z,0
2023-04-28T02:06:02.838Z,0
2023-04-28T02:06:34.102Z,0
2023-04-28T02:07:04.838Z,0
2023-04-28T02:07:36.111Z,0
2023-04-28T02:08:06.944Z,0
2023-04-28T02:08:37.926Z,0
2023-04-28T02:09:08.847Z,0
2023-04-28T02:09:40.262Z,0
2023-04-28T02:10:11.512Z,0
2023-04-28T02:10:42.041Z,0
2023-04-28T02:11:13.760Z,0
2023-04-28T02:11:44.176Z,0
2023-04-28T02:12:16.464Z,0
2023-04-28T02:12:45.902Z,0
2023-04-28T02:13:16.897Z,0
2023-04-28T02:13:47.878Z,0
2023-04-28T02:14:18.951Z,0
2023-04-28T02:14:49.880Z,0
2023-04-28T02:15:21.612Z,0
2023-04-28T02:15:52.294Z,0
2023-04-28T02:16:23.061Z,0
2023-04-28T02:16:53.949Z,0
2023-04-28T02:17:25.326Z,0
2023-04-28T02:17:56.082Z,0
2023-04-28T02:18:26.976Z,0
2023-04-28T02:18:58.526Z,0
2023-04-28T02:19:29.241Z,0
2023-04-28T02:20:00.123Z,0
2023-04-28T02:20:33.175Z,0
2023-04-28T02:21:01.848Z,0
2023-04-28T02:21:33.177Z,0
2023-04-28T02:22:03.945Z,0
2023-04-28T02:22:35.062Z,0
2023-04-28T02:23:05.987Z,0
2023-04-28T02:23:36.883Z,0
2023-04-28T02:24:07.931Z,0
2023-04-28T02:24:39.132Z,0
2023-04-28T02:25:10.393Z,0
2023-04-28T02:25:40.995Z,0
2023-04-28T02:26:11.920Z,0
2023-04-28T02:26:42.995Z,0
2023-04-28T02:27:14.050Z,0
2023-04-28T02:27:44.953Z,0
2023-04-28T02:28:15.919Z,0
2023-04-28T02:28:46.936Z,0
2023-04-28T02:29:17.970Z,0
2023-04-28T02:29:49.034Z,0
2023-04-28T02:30:21.184Z,0
2023-04-28T02:30:50.975Z,0
2023-04-28T02:31:22.389Z,0
2023-04-28T02:31:53.352Z,0
2023-04-28T02:32:24.348Z,0
2023-04-28T02:32:55.420Z,0
2023-04-28T02:33:26.269Z,0
2023-04-28T02:33:56.919Z,0
2023-04-28T02:34:27.971Z,0
2023-04-28T02:34:58.946Z,0
2023-04-28T02:35:30.734Z,0
2023-04-28T02:36:00.878Z,0
2023-04-28T02:36:31.910Z,0
2023-04-28T02:37:02.954Z,0
2023-04-28T02:37:34.046Z,0
2023-04-28T02:38:04.945Z,0
2023-04-28T02:38:36.284Z,0
2023-04-28T02:39:07.298Z,0
2023-04-28T02:39:37.936Z,0
2023-04-28T02:40:09.371Z,0
2023-04-28T02:40:40.511Z,0
2023-04-28T02:41:11.270Z,0
2023-04-28T02:41:42.300Z,0
2023-04-28T02:42:12.950Z,0
2023-04-28T02:42:45.500Z,0
2023-04-28T02:43:14.922Z,0
2023-04-28T02:43:46.405Z,0
2023-04-28T02:44:17.133Z,0
2023-04-28T02:44:48.341Z,0
2023-04-28T02:45:22.996Z,0
2023-04-28T02:45:50.007Z,0
2023-04-28T02:46:21.027Z,0
2023-04-28T02:46:52.152Z,0
2023-04-28T02:47:23.368Z,0
2023-04-28T02:47:54.006Z,0
2023-04-28T02:48:25.206Z,0
2023-04-28T02:48:56.458Z,0
2023-04-28T02:49:27.022Z,0
2023-04-28T02:49:57.999Z,0
2023-04-28T02:50:29.442Z,0
2023-04-28T02:51:00.257Z,0
2023-04-28T02:51:31.043Z,0
2023-04-28T02:52:02.355Z,0
2023-04-28T02:52:33.015Z,0
2023-04-28T02:53:04.118Z,0
2023-04-28T02:53:34.954Z,0
2023-04-28T02:54:06.251Z,0
2023-04-28T02:54:37.706Z,0
2023-04-28T02:55:08.439Z,0
2023-04-28T02:55:39.333Z,0
2023-04-28T02:56:10.358Z,0
2023-04-28T02:56:41.017Z,0
2023-04-28T02:57:11.996Z,0
2023-04-28T02:57:43.142Z,0
2023-04-28T02:58:14.407Z,0
2023-04-28T02:58:45.275Z,0
2023-04-28T02:59:16.633Z,0
2023-04-28T02:59:47.366Z,0
2023-04-28T03:00:18.884Z,0
2023-04-28T03:00:49.478Z,0
2023-04-28T03:01:20.219Z,0
2023-04-28T03:01:50.990Z,0
2023-04-28T03:02:22.046Z,0
2023-04-28T03:02:53.598Z,0
2023-04-28T03:03:24.169Z,0
2023-04-28T03:03:56.123Z,0
2023-04-28T03:04:26.509Z,0
2023-04-28T03:04:57.113Z,0
2023-04-28T03:05:28.716Z,0
2023-04-28T03:05:59.542Z,0
2023-04-28T03:06:30.459Z,0
2023-04-28T03:07:01.025Z,0
2023-04-28T03:07:32.230Z,0
2023-04-28T03:08:03.201Z,0
2023-04-28T03:08:34.607Z,0
2023-04-28T03:09:05.089Z,0
2023-04-28T03:09:36.257Z,0
2023-04-28T03:10:07.388Z,0
2023-04-28T03:10:38.329Z,0
2023-04-28T03:11:09.456Z,0
2023-04-28T03:11:40.104Z,0
2023-04-28T03:12:11.070Z,0
2023-04-28T03:12:42.186Z,0
2023-04-28T03:13:13.210Z,0
2023-04-28T03:13:44.254Z,0
2023-04-28T03:14:16.663Z,0
2023-04-28T03:14:46.422Z,0
2023-04-28T03:15:18.527Z,0
2023-04-28T03:15:48.374Z,0
2023-04-28T03:16:19.094Z,0
2023-04-28T03:16:50.222Z,0
2023-04-28T03:17:21.401Z,0
2023-04-28T03:17:52.392Z,0
2023-04-28T03:18:23.093Z,0
2023-04-28T03:18:54.396Z,0
2023-04-28T03:19:25.293Z,0
2023-04-28T03:19:56.061Z,0
2023-04-28T03:20:27.529Z,0
2023-04-28T03:20:58.541Z,0
2023-04-28T03:21:29.068Z,0
2023-04-28T03:22:00.064Z,0
2023-04-28T03:22:32.165Z,0
2023-04-28T03:23:02.405Z,0
2023-04-28T03:23:33.125Z,0
2023-04-28T03:24:05.553Z,0
2023-04-28T03:24:35.123Z,0
2023-04-28T03:25:06.293Z,0
2023-04-28T03:25:37.302Z,0
2023-04-28T03:26:08.692Z,0
2023-04-28T03:26:39.515Z,0
2023-04-28T03:27:10.155Z,0
2023-04-28T03:27:41.286Z,0
2023-04-28T03:28:12.267Z,0
2023-04-28T03:28:43.312Z,0
2023-04-28T03:29:14.066Z,0
2023-04-28T03:29:45.110Z,0
2023-04-28T03:30:17.018Z,0
2023-04-28T03:30:47.184Z,0
2023-04-28T03:31:18.484Z,0
2023-04-28T03:31:49.187Z,0
2023-04-28T03:32:20.374Z,0
2023-04-28T03:32:51.391Z,0
2023-04-28T03:33:22.444Z,0
2023-04-28T03:33:53.418Z,0
2023-04-28T03:34:24.240Z,0
2023-04-28T03:34:55.517Z,0
2023-04-28T03:35:26.484Z,0
2023-04-28T03:35:57.500Z,0
2023-04-28T03:36:28.346Z,0
2023-04-28T03:36:59.554Z,0
2023-04-28T03:37:30.373Z,0
2023-04-28T03:38:01.514Z,0
2023-04-28T03:38:32.123Z,0
2023-04-28T03:39:03.524Z,0
2023-04-28T03:39:34.344Z,0
2023-04-28T03:40:05.496Z,0
2023-04-28T03:40:36.632Z,0
2023-04-28T03:41:07.193Z,0
2023-04-28T03:41:38.373Z,0
2023-04-28T03:42:09.473Z,0
2023-04-28T03:42:40.177Z,0
2023-04-28T03:43:11.558Z,0
2023-04-28T03:43:42.523Z,0
2023-04-28T03:44:13.511Z,0
2023-04-28T03:44:44.369Z,0
2023-04-28T03:45:15.928Z,0
2023-04-28T03:45:47.561Z,0
2023-04-28T03:46:17.666Z,0
2023-04-28T03:46:49.346Z,0
2023-04-28T03:47:19.533Z,0
2023-04-28T03:47:50.269Z,0
2023-04-28T03:48:21.294Z,0
2023-04-28T03:48:52.233Z,0
2023-04-28T03:49:23.281Z,0
2023-04-28T03:49:54.313Z,0
2023-04-28T03:50:26.787Z,0
2023-04-28T03:50:56.654Z,0
2023-04-28T03:51:27.550Z,0
2023-04-28T03:51:58.329Z,0
2023-04-28T03:52:29.284Z,0
2023-04-28T03:53:00.324Z,0
2023-04-28T03:53:31.348Z,0
2023-04-28T03:54:02.492Z,0
2023-04-28T03:54:33.117Z,0
2023-04-28T03:55:04.569Z,0
2023-04-28T03:55:35.248Z,0
2023-04-28T03:56:06.462Z,0
2023-04-28T03:56:37.641Z,0
2023-04-28T03:57:08.288Z,0
2023-04-28T03:57:39.188Z,0
2023-04-28T03:58:10.164Z,0
2023-04-28T03:58:41.380Z,0
2023-04-28T03:59:12.490Z,0
2023-04-28T03:59:43.541Z,0
2023-04-28T04:00:15.441Z,0
2023-04-28T04:00:45.448Z,0
2023-04-28T04:01:16.786Z,0
2023-04-28T04:01:47.270Z,0
2023-04-28T04:02:18.724Z,0
2023-04-28T04:02:49.859Z,0
2023-04-28T04:03:20.434Z,0
2023-04-28T04:03:51.908Z,0
2023-04-28T04:04:23.228Z,0
2023-04-28T04:04:53.852Z,0
2023-04-28T04:05:25.188Z,0
2023-04-28T04:05:55.674Z,0
2023-04-28T04:06:26.837Z,0
2023-04-28T04:06:57.603Z,0
2023-04-28T04:07:28.251Z,0
2023-04-28T04:07:59.626Z,0
2023-04-28T04:08:30.679Z,0
2023-04-28T04:09:01.193Z,0
2023-04-28T04:09:32.714Z,0
2023-04-28T04:10:04.586Z,0
2023-04-28T04:10:34.580Z,0
2023-04-28T04:11:05.352Z,0
2023-04-28T04:11:36.708Z,0
2023-04-28T04:12:07.425Z,0
2023-04-28T04:12:38.568Z,0
2023-04-28T04:13:10.100Z,0
2023-04-28T04:13:40.650Z,0
2023-04-28T04:14:11.672Z,0
2023-04-28T04:14:42.331Z,0
2023-04-28T04:15:13.943Z,0
2023-04-28T04:15:44.533Z,0
2023-04-28T04:16:15.303Z,0
2023-04-28T04:16:46.681Z,0
2023-04-28T04:17:19.172Z,0
2023-04-28T04:17:48.744Z,0
2023-04-28T04:18:21.140Z,0
2023-04-28T04:18:50.355Z,0
2023-04-28T04:19:22.096Z,0
2023-04-28T04:19:52.482Z,0
2023-04-28T04:20:23.998Z,0
2023-04-28T04:20:54.745Z,0
2023-04-28T04:21:25.654Z,0
2023-04-28T04:21:56.526Z,0
2023-04-28T04:22:27.604Z,0
2023-04-28T04:22:58.249Z,0
2023-04-28T04:23:29.334Z,0
2023-04-28T04:24:00.700Z,0
2023-04-28T04:24:31.653Z,0
2023-04-28T04:25:03.119Z,0
2023-04-28T04:25:33.597Z,0
2023-04-28T04:26:04.909Z,0
2023-04-28T04:26:35.667Z,0
2023-04-28T04:27:06.740Z,0
2023-04-28T04:27:37.736Z,0
2023-04-28T04:28:08.704Z,0
2023-04-28T04:28:39.702Z,0
2023-04-28T04:29:10.716Z,0
2023-04-28T04:29:41.633Z,0
2023-04-28T04:30:13.260Z,0
2023-04-28T04:30:43.643Z,0
2023-04-28T04:31:14.346Z,0
2023-04-28T04:31:45.492Z,0
2023-04-28T04:32:16.633Z,0
2023-04-28T04:32:47.545Z,0
2023-04-28T04:33:18.740Z,0
2023-04-28T04:33:49.476Z,0
2023-04-28T04:34:20.549Z,0
2023-04-28T04:34:51.710Z,0
2023-04-28T04:35:22.968Z,0
2023-04-28T04:35:53.354Z,0
2023-04-28T04:36:24.612Z,0
2023-04-28T04:36:55.528Z,0
2023-04-28T04:37:26.393Z,0
2023-04-28T04:37:57.552Z,0
2023-04-28T04:38:28.550Z,0
2023-04-28T04:38:59.414Z,0
2023-04-28T04:39:30.405Z,0
2023-04-28T04:40:01.616Z,0
2023-04-28T04:40:32.819Z,0
2023-04-28T04:41:03.625Z,0
2023-04-28T04:41:34.654Z,0
2023-04-28T04:42:22.624Z,0
2023-04-28T04:42:36.641Z,0
2023-04-28T04:43:07.592Z,0
2023-04-28T04:43:38.923Z,0
2023-04-28T04:44:09.660Z,0
2023-04-28T04:44:40.858Z,0
2023-04-28T04:45:12.061Z,0
2023-04-28T04:45:42.462Z,0
2023-04-28T04:46:14.088Z,0
2023-04-28T04:46:44.888Z,0
2023-04-28T04:47:15.815Z,0
2023-04-28T04:47:46.463Z,0
2023-04-28T04:48:17.400Z,0
2023-04-28T04:48:50.119Z,0
2023-04-28T04:49:19.569Z,0
2023-04-28T04:49:52.580Z,0
2023-04-28T04:50:22.139Z,0
2023-04-28T04:50:53.640Z,0
2023-04-28T04:51:23.652Z,0
2023-04-28T04:51:54.712Z,0
2023-04-28T04:52:25.592Z,0
2023-04-28T04:52:56.809Z,0
2023-04-28T04:53:27.442Z,0
2023-04-28T04:53:58.638Z,0
2023-04-28T04:54:29.453Z,0
2023-04-28T04:55:00.829Z,0
2023-04-28T04:55:31.783Z,0
2023-04-28T04:56:02.516Z,0
2023-04-28T04:56:33.454Z,0
2023-04-28T04:57:05.162Z,0
2023-04-28T04:57:36.919Z,0
2023-04-28T04:58:06.902Z,0
2023-04-28T04:58:37.949Z,0
2023-04-28T04:59:08.681Z,0
2023-04-28T04:59:39.512Z,0
2023-04-28T05:00:11.136Z,0
2023-04-28T05:00:41.476Z,0
2023-04-28T05:01:12.454Z,0
2023-04-28T05:01:43.483Z,0
2023-04-28T05:02:45.678Z,0
2023-04-28T05:03:16.677Z,0
2023-04-28T05:03:47.938Z,0
2023-04-28T05:04:19.509Z,0
2023-04-28T05:04:49.610Z,0
2023-04-28T05:05:22.828Z,0
2023-04-28T05:05:51.542Z,0
2023-04-28T05:06:22.607Z,0
2023-04-28T05:06:53.753Z,0
2023-04-28T05:07:24.516Z,0
2023-04-28T05:07:55.698Z,0
2023-04-28T05:08:26.630Z,0
2023-04-28T05:08:57.809Z,0
2023-04-28T05:09:28.522Z,0
2023-04-28T05:09:59.759Z,0
2023-04-28T05:10:31.394Z,0
2023-04-28T05:11:01.778Z,0
2023-04-28T05:11:32.537Z,0
2023-04-28T05:12:03.790Z,0
2023-04-28T05:12:34.758Z,0
2023-04-28T05:13:05.546Z,0
2023-04-28T05:13:36.639Z,0
2023-04-28T05:14:07.511Z,0
2023-04-28T05:14:38.895Z,0
2023-04-28T05:15:10.342Z,0
2023-04-28T05:15:40.889Z,0
2023-04-28T05:16:11.751Z,0
2023-04-28T05:16:42.955Z,0
2023-04-28T05:17:13.999Z,0
2023-04-28T05:17:45.128Z,0
2023-04-28T05:18:15.922Z,0
2023-04-28T05:18:46.829Z,0
2023-04-28T05:19:17.587Z,0
2023-04-28T05:19:48.532Z,0
2023-04-28T05:20:22.134Z,0
2023-04-28T05:20:50.584Z,0
2023-04-28T05:21:23.630Z,0
2023-04-28T05:21:52.575Z,0
2023-04-28T05:22:24.887Z,0
2023-04-28T05:22:54.517Z,0
2023-04-28T05:23:25.863Z,0
2023-04-28T05:23:56.591Z,0
2023-04-28T05:24:27.730Z,0
2023-04-28T05:24:58.571Z,0
2023-04-28T05:25:29.927Z,0
2023-04-28T05:26:00.582Z,0
2023-04-28T05:26:31.530Z,0
2023-04-28T05:27:03.059Z,0
2023-04-28T05:27:33.929Z,0
2023-04-28T05:28:04.932Z,0
2023-04-28T05:28:35.514Z,0
2023-04-28T05:29:06.703Z,0
2023-04-28T05:29:37.917Z,0
2023-04-28T05:30:09.701Z,0
2023-04-28T05:30:39.596Z,2.88
2023-04-28T05:31:10.572Z,2.52
2023-04-28T05:31:41.624Z,0
2023-04-28T05:32:13.021Z,0
2023-04-28T05:32:43.873Z,1.80
2023-04-28T05:33:15.140Z,3.60
2023-04-28T05:33:45.605Z,.35
2023-04-28T05:34:17.118Z,3.60
2023-04-28T05:34:47.596Z,0
2023-04-28T05:35:19.301Z,.72
2023-04-28T05:35:49.580Z,2.52
2023-04-28T05:36:20.703Z,1.07
2023-04-28T05:36:51.748Z,0
2023-04-28T05:37:22.804Z,0
2023-04-28T05:37:54.066Z,1.43
2023-04-28T05:38:24.882Z,1.43
2023-04-28T05:38:55.840Z,3.60
2023-04-28T05:39:26.883Z,3.60
2023-04-28T05:39:57.612Z,3.23
2023-04-28T05:40:29.846Z,1.80
2023-04-28T05:41:00.065Z,3.60
2023-04-28T05:41:30.837Z,1.80
2023-04-28T05:42:01.616Z,0
2023-04-28T05:42:32.663Z,2.52
2023-04-28T05:43:03.913Z,1.07
2023-04-28T05:43:35.822Z,1.80
2023-04-28T05:44:06.012Z,1.07
2023-04-28T05:44:36.806Z,0
2023-04-28T05:45:08.537Z,3.23
2023-04-28T05:45:38.904Z,.35
2023-04-28T05:46:21.953Z,2.15
2023-04-28T05:46:40.906Z,3.60
2023-04-28T05:47:12.033Z,2.15
2023-04-28T05:47:43.106Z,1.07
2023-04-28T05:48:13.944Z,2.52
2023-04-28T05:48:45.035Z,2.52
2023-04-28T05:49:15.776Z,3.95
2023-04-28T05:49:46.594Z,3.60
2023-04-28T05:50:18.451Z,1.07
2023-04-28T05:50:48.696Z,1.43
2023-04-28T05:51:19.661Z,2.15
2023-04-28T05:51:52.470Z,0
2023-04-28T05:52:22.000Z,0
2023-04-28T05:52:55.049Z,0
2023-04-28T05:53:24.063Z,0
2023-04-28T05:53:56.124Z,0
2023-04-28T05:54:26.060Z,1.80
2023-04-28T05:54:56.955Z,2.15
2023-04-28T05:55:28.414Z,0
2023-04-28T05:55:59.005Z,0
2023-04-28T05:56:30.074Z,0
2023-04-28T05:57:01.568Z,.35
2023-04-28T05:57:36.197Z,1.43
2023-04-28T05:58:02.637Z,.72
2023-04-28T05:58:33.652Z,0
2023-04-28T05:59:05.137Z,0
2023-04-28T05:59:35.729Z,0
2023-04-28T06:00:07.441Z,0
2023-04-28T06:00:38.269Z,0
2023-04-28T06:01:08.709Z,0
2023-04-28T06:01:39.860Z,0
2023-04-28T06:02:10.830Z,1.07
2023-04-28T06:02:41.932Z,0
2023-04-28T06:03:12.999Z,0
2023-04-28T06:03:44.218Z,0
2023-04-28T06:04:15.037Z,0
2023-04-28T06:04:45.996Z,0
2023-04-28T06:05:17.969Z,0
2023-04-28T06:05:48.549Z,0
2023-04-28T06:06:19.057Z,0
2023-04-28T06:06:49.806Z,0
2023-04-28T06:07:20.851Z,2.15
2023-04-28T06:07:53.718Z,1.07
2023-04-28T06:08:22.963Z,1.07
2023-04-28T06:08:54.158Z,1.43
2023-04-28T06:09:25.111Z,0
2023-04-28T06:09:56.095Z,1.07
2023-04-28T06:10:27.736Z,0
2023-04-28T06:10:58.330Z,0
2023-04-28T06:11:29.068Z,0
2023-04-28T06:12:00.198Z,0
2023-04-28T06:12:30.773Z,2.88
2023-04-28T06:13:02.152Z,0
2023-04-28T06:13:33.075Z,0
2023-04-28T06:14:04.116Z,0
2023-04-28T06:14:35.137Z,0
2023-04-28T06:15:06.314Z,0
2023-04-28T06:15:36.969Z,0
2023-04-28T06:16:08.357Z,0
2023-04-28T06:16:38.766Z,0
2023-04-28T06:17:09.914Z,1.07
2023-04-28T06:17:41.133Z,0
2023-04-28T06:18:12.107Z,0
2023-04-28T06:18:43.152Z,0
2023-04-28T06:19:14.116Z,0
2023-04-28T06:19:45.039Z,0
2023-04-28T06:20:16.695Z,0
2023-04-28T06:20:46.948Z,0
2023-04-28T06:21:18.184Z,0
2023-04-28T06:21:49.171Z,0
2023-04-28T06:22:19.999Z,0
2023-04-28T06:22:51.085Z,0
2023-04-28T06:23:24.117Z,0
2023-04-28T06:23:52.927Z,0
2023-04-28T06:24:25.845Z,0
2023-04-28T06:24:54.917Z,0
2023-04-28T06:25:26.675Z,0
2023-04-28T06:25:57.289Z,0
2023-04-28T06:26:28.222Z,0
2023-04-28T06:26:59.130Z,0
2023-04-28T06:27:29.791Z,0
2023-04-28T06:28:00.843Z,0
2023-04-28T06:28:32.166Z,0
2023-04-28T06:29:03.183Z,0
2023-04-28T06:29:34.454Z,0
2023-04-28T06:30:05.311Z,0
2023-04-28T06:30:36.032Z,0
2023-04-28T06:31:06.816Z,0
2023-04-28T06:31:37.996Z,0
2023-04-28T06:32:08.843Z,0
2023-04-28T06:32:40.152Z,0
2023-04-28T06:33:11.188Z,0
2023-04-28T06:33:42.108Z,0
2023-04-28T06:34:12.852Z,0
2023-04-28T06:34:44.239Z,0
2023-04-28T06:35:15.293Z,0
2023-04-28T06:35:46.256Z,0
2023-04-28T06:36:17.213Z,0
2023-04-28T06:36:48.209Z,0
2023-04-28T06:37:20.021Z,0
2023-04-28T06:37:49.883Z,0
2023-04-28T06:38:20.939Z,0
2023-04-28T06:38:51.858Z,0
2023-04-28T06:39:22.828Z,0
2023-04-28T06:39:53.946Z,0
2023-04-28T06:40:25.465Z,0
2023-04-28T06:40:55.928Z,0
2023-04-28T06:41:26.917Z,0
2023-04-28T06:41:57.889Z,0
2023-04-28T06:42:28.988Z,0
2023-04-28T06:43:00.044Z,0
2023-04-28T06:43:30.775Z,0
2023-04-28T06:44:02.383Z,0
2023-04-28T06:44:33.885Z,0
2023-04-28T06:45:04.762Z,0
2023-04-28T06:45:35.236Z,0
2023-04-28T06:46:06.555Z,0
2023-04-28T06:46:37.125Z,0
2023-04-28T06:47:08.621Z,0
2023-04-28T06:47:39.243Z,0
2023-04-28T06:48:10.266Z,0
2023-04-28T06:48:41.208Z,0
2023-04-28T06:49:11.788Z,0
2023-04-28T06:49:42.826Z,0
2023-04-28T06:50:14.316Z,0
2023-04-28T06:50:44.876Z,0
2023-04-28T06:51:15.910Z,0
2023-04-28T06:51:47.226Z,0
2023-04-28T06:52:19.166Z,0
2023-04-28T06:52:48.948Z,0
2023-04-28T06:53:19.996Z,0
2023-04-28T06:53:51.345Z,0
2023-04-28T06:54:22.195Z,0
2023-04-28T06:54:54.175Z,0
2023-04-28T06:55:24.797Z,0
2023-04-28T06:55:56.740Z,0
2023-04-28T06:56:25.995Z,0
2023-04-28T06:56:56.871Z,0
2023-04-28T06:57:28.788Z,0
2023-04-28T06:57:58.934Z,0
2023-04-28T06:58:29.798Z,0
2023-04-28T06:59:00.930Z,0
2023-04-28T06:59:31.962Z,0
2023-04-28T07:00:03.565Z,0
2023-04-28T07:00:34.132Z,0
2023-04-28T07:01:05.089Z,0
2023-04-28T07:01:35.793Z,0
2023-04-28T07:02:07.280Z,0
2023-04-28T07:02:38.425Z,0
2023-04-28T07:03:09.252Z,0
2023-04-28T07:03:40.649Z,0
2023-04-28T07:04:11.030Z,0
2023-04-28T07:04:41.967Z,0
2023-04-28T07:05:15.486Z,0
2023-04-28T07:05:43.985Z,0
2023-04-28T07:06:15.310Z,0
2023-04-28T07:06:46.318Z,0
2023-04-28T07:07:17.137Z,0
2023-04-28T07:07:48.517Z,0
2023-04-28T07:08:19.125Z,0
2023-04-28T07:08:50.236Z,0
2023-04-28T07:09:21.138Z,0
2023-04-28T07:09:52.243Z,0
2023-04-28T07:10:23.512Z,0
2023-04-28T07:10:54.003Z,0
2023-04-28T07:11:24.896Z,0
2023-04-28T07:11:56.309Z,0
2023-04-28T07:12:26.933Z,0
2023-04-28T07:12:58.704Z,0
2023-04-28T07:13:29.846Z,0
2023-04-28T07:14:00.904Z,0
2023-04-28T07:14:31.257Z,0
2023-04-28T07:15:02.449Z,0
2023-04-28T07:15:33.296Z,0
2023-04-28T07:16:04.360Z,0
2023-04-28T07:16:35.427Z,0
2023-04-28T07:17:05.927Z,0
2023-04-28T07:17:37.142Z,0
2023-04-28T07:18:08.373Z,0
2023-04-28T07:18:39.187Z,0
2023-04-28T07:19:10.358Z,0
2023-04-28T07:19:40.989Z,0
2023-04-28T07:20:12.818Z,0
2023-04-28T07:20:43.056Z,0
2023-04-28T07:21:14.357Z,0
2023-04-28T07:21:45.385Z,0
2023-04-28T07:22:16.666Z,0
2023-04-28T07:22:47.532Z,0
2023-04-28T07:23:18.320Z,5.40
2023-04-28T07:23:49.307Z,.72
2023-04-28T07:24:20.022Z,1.07
2023-04-28T07:24:51.081Z,.35
2023-04-28T07:25:23.177Z,3.95
2023-04-28T07:25:53.349Z,4.68
2023-04-28T07:26:25.130Z,2.88
2023-04-28T07:26:55.014Z,1.43
2023-04-28T07:27:28.335Z,3.95
2023-04-28T07:27:56.990Z,2.88
2023-04-28T07:28:28.913Z,6.83
2023-04-28T07:28:59.288Z,3.95
2023-04-28T07:29:29.958Z,2.52
2023-04-28T07:30:04.636Z,1.43
2023-04-28T07:30:32.254Z,1.07
2023-04-28T07:31:03.269Z,2.88
2023-04-28T07:31:34.500Z,3.95
2023-04-28T07:32:07.342Z,6.48
2023-04-28T07:32:36.293Z,4.31
2023-04-28T07:33:07.128Z,2.52
2023-04-28T07:33:38.494Z,2.15
2023-04-28T07:34:08.994Z,5.40
2023-04-28T07:34:40.131Z,2.15
2023-04-28T07:35:11.377Z,2.88
2023-04-28T07:35:42.187Z,4.68